createdAt,value
2017-08-07T09:29:25.875Z,3404
2017-08-07T09:30:27.281Z,2804
2017-08-07T09:31:28.692Z,8724
2017-08-07T09:32:30.499Z,7268
2017-08-07T09:33:31.902Z,9004
2017-08-07T09:34:33.319Z,10164
2017-08-07T09:35:34.739Z,9856
2017-08-07T09:36:36.154Z,8872
2017-08-07T09:37:37.573Z,9076
2017-08-07T09:38:38.999Z,20544
2017-08-07T09:39:40.422Z,25504
2017-08-07T09:40:41.840Z,18176
2017-08-07T09:41:43.254Z,16416
2017-08-07T09:42:44.676Z,13060
2017-08-07T09:43:46.092Z,9256
2017-08-07T09:44:47.508Z,11652
2017-08-07T09:45:48.928Z,15744
2017-08-07T09:46:50.346Z,18656
2017-08-07T09:47:52.149Z,27168
2017-08-07T09:48:53.573Z,18688
2017-08-07T09:49:54.996Z,11100
2017-08-07T09:50:56.426Z,14496
2017-08-07T09:51:57.847Z,14016
2017-08-07T09:52:59.269Z,11804
2017-08-07T09:54:00.684Z,18080
2017-08-07T09:55:02.101Z,23008
2017-08-07T09:56:03.528Z,26432
2017-08-07T09:57:04.942Z,6072
2017-08-07T09:58:06.364Z,36416
2017-08-07T09:59:07.786Z,30720
2017-08-07T10:00:09.200Z,28320
2017-08-07T10:01:10.616Z,43936
2017-08-07T10:02:12.076Z,43776
2017-08-07T10:03:13.494Z,42304
2017-08-07T10:04:14.913Z,47328
2017-08-07T10:05:16.403Z,55776
2017-08-07T10:06:17.814Z,58464
2017-08-07T10:07:19.288Z,70752
2017-08-07T10:08:20.693Z,9068
2017-08-07T10:09:22.157Z,8700
2017-08-07T10:10:23.578Z,8516
2017-08-07T10:11:25.037Z,88160
2017-08-07T10:12:26.459Z,88992
2017-08-07T10:13:27.925Z,91520
2017-08-07T10:14:29.345Z,13128
2017-08-07T10:15:30.803Z,81792
2017-08-07T10:16:32.217Z,19840
2017-08-07T10:17:33.690Z,7732
2017-08-07T10:18:35.122Z,7336
2017-08-07T10:19:36.576Z,5372
2017-08-07T10:20:37.976Z,5184
2017-08-07T10:21:39.416Z,5524
2017-08-07T10:22:40.876Z,6220
2017-08-07T10:23:42.293Z,7084
2017-08-07T10:24:43.713Z,57696
2017-08-07T10:25:45.254Z,9696
2017-08-07T10:26:46.674Z,11872
2017-08-07T10:27:48.187Z,15504
2017-08-07T10:28:49.608Z,19808
2017-08-07T10:29:51.066Z,18816
2017-08-07T10:30:52.482Z,62304
2017-08-07T10:31:53.948Z,43136
2017-08-07T10:32:55.364Z,33440
2017-08-07T10:33:56.829Z,36768
2017-08-07T10:34:58.245Z,21152
2017-08-07T10:35:59.708Z,14600
2017-08-07T10:37:01.145Z,14360
2017-08-07T10:38:02.589Z,30656
2017-08-07T10:39:04.030Z,24224
2017-08-07T10:40:05.467Z,23232
2017-08-07T10:41:06.888Z,29824
2017-08-07T10:42:08.350Z,31200
2017-08-07T10:43:09.765Z,27776
2017-08-07T10:44:11.232Z,28896
2017-08-07T10:45:12.650Z,34656
2017-08-07T10:46:14.110Z,31104
2017-08-07T10:47:15.526Z,26496
2017-08-07T10:48:16.994Z,24768
2017-08-07T10:49:18.405Z,25312
2017-08-07T10:50:19.873Z,36800
2017-08-07T10:51:21.292Z,49280
2017-08-07T10:52:22.753Z,60480
2017-08-07T10:53:24.172Z,59552
2017-08-07T10:54:25.633Z,63616
2017-08-07T10:55:27.111Z,66240
2017-08-07T10:56:28.525Z,72832
2017-08-07T10:57:29.944Z,10132
2017-08-07T10:58:31.359Z,78048
2017-08-07T10:59:32.836Z,79424
2017-08-07T11:00:34.257Z,86464
2017-08-07T11:01:35.672Z,13532
2017-08-07T11:02:37.153Z,10272
2017-08-07T11:03:38.568Z,9968
2017-08-07T11:04:39.982Z,95008
2017-08-07T11:05:41.487Z,92544
2017-08-07T11:06:42.903Z,91328
2017-08-07T11:07:44.317Z,7264
2017-08-07T11:08:45.792Z,5240
2017-08-07T11:09:47.211Z,5372
2017-08-07T11:10:48.629Z,19968
2017-08-07T11:11:50.117Z,84576
2017-08-07T11:12:51.538Z,98784
2017-08-07T11:13:52.949Z,10444
2017-08-07T11:14:54.443Z,103936
2017-08-07T11:15:55.864Z,107968
2017-08-07T11:16:57.276Z,110688
2017-08-07T11:17:58.756Z,105792
2017-08-07T11:19:00.175Z,68416
2017-08-07T11:20:01.639Z,8708
2017-08-07T11:21:03.079Z,100608
2017-08-07T11:22:04.523Z,85056
2017-08-07T11:23:05.939Z,88864
2017-08-07T11:24:07.400Z,85824
2017-08-07T11:25:08.818Z,83104
2017-08-07T11:26:10.284Z,79456
2017-08-07T11:27:11.701Z,72896
2017-08-07T11:28:13.115Z,62528
2017-08-07T11:29:14.614Z,56640
2017-08-07T11:30:16.021Z,52768
2017-08-07T11:31:17.442Z,50592
2017-08-07T11:32:18.930Z,48128
2017-08-07T11:33:20.346Z,46080
2017-08-07T11:34:21.807Z,44384
2017-08-07T11:35:23.637Z,33824
2017-08-07T11:36:25.101Z,15504
2017-08-07T11:37:26.522Z,37120
2017-08-07T11:38:27.977Z,34592
2017-08-07T11:39:29.395Z,33504
2017-08-07T11:40:30.855Z,32448
2017-08-07T11:41:32.653Z,30848
2017-08-07T11:42:34.070Z,30720
2017-08-07T11:43:36.509Z,23072
2017-08-07T11:44:37.929Z,15172
2017-08-07T11:45:39.356Z,31104
2017-08-07T11:46:40.831Z,20544
2017-08-07T11:47:42.246Z,30176
2017-08-07T11:48:43.665Z,16224
2017-08-07T11:49:45.151Z,8208
2017-08-07T11:50:46.567Z,22336
2017-08-07T11:51:47.989Z,24832
2017-08-07T11:52:49.471Z,24704
2017-08-07T11:53:50.954Z,20544
2017-08-07T11:54:52.368Z,22240
2017-08-07T11:55:53.894Z,22112
2017-08-07T11:56:55.308Z,5244
2017-08-07T11:57:57.117Z,4928
2017-08-07T11:58:58.627Z,11456
2017-08-07T12:00:00.050Z,11140
2017-08-07T12:01:01.477Z,6492
2017-08-07T12:02:02.958Z,7448
2017-08-07T12:03:04.381Z,13576
2017-08-07T12:04:05.825Z,13652
2017-08-07T12:05:07.252Z,12736
2017-08-07T12:06:08.706Z,11676
2017-08-07T12:07:10.129Z,9876
2017-08-07T12:08:11.551Z,9228
2017-08-07T12:09:13.028Z,10244
2017-08-07T12:10:14.452Z,10440
2017-08-07T12:11:15.873Z,11000
2017-08-07T12:12:17.347Z,10324
2017-08-07T12:13:19.144Z,4268
2017-08-07T12:14:20.573Z,4460
2017-08-07T12:15:22.086Z,4460
2017-08-07T12:16:23.517Z,4452
2017-08-07T12:17:24.936Z,4156
2017-08-07T12:18:26.396Z,4120
2017-08-07T12:19:27.813Z,3748
2017-08-07T12:20:29.241Z,3788
2017-08-07T12:21:31.108Z,4440
2017-08-07T12:22:32.524Z,5680
2017-08-07T12:23:34.011Z,9660
2017-08-07T12:24:35.433Z,10796
2017-08-07T12:25:37.968Z,10640
2017-08-07T12:26:39.355Z,12040
2017-08-07T12:27:40.912Z,12016
2017-08-07T12:28:42.333Z,11472
2017-08-07T12:29:43.778Z,10920
2017-08-07T12:30:45.196Z,10124
2017-08-07T12:31:46.660Z,10160
2017-08-07T12:32:48.080Z,11340
2017-08-07T12:33:49.547Z,10732
2017-08-07T12:34:50.965Z,8988
2017-08-07T12:35:52.421Z,8752
2017-08-07T12:36:53.838Z,7260
2017-08-07T12:37:55.253Z,5180
2017-08-07T12:38:56.742Z,9576
2017-08-07T12:39:58.157Z,4100
2017-08-07T12:40:59.576Z,3948
2017-08-07T12:42:01.061Z,3800
2017-08-07T12:43:02.479Z,4004
2017-08-07T12:44:03.948Z,4092
2017-08-07T12:45:05.358Z,3884
2017-08-07T12:46:06.835Z,8504
2017-08-07T12:47:08.253Z,8796
2017-08-07T12:48:09.670Z,8168
2017-08-07T12:49:11.145Z,3828
2017-08-07T12:50:12.558Z,6436
2017-08-07T12:51:13.998Z,5552
2017-08-07T12:52:15.485Z,4104
2017-08-07T12:53:16.901Z,3788
2017-08-07T12:54:18.346Z,5568
2017-08-07T12:55:19.771Z,6952
2017-08-07T12:56:21.229Z,7772
2017-08-07T12:57:22.651Z,8348
2017-08-07T12:58:24.509Z,9216
2017-08-07T12:59:25.925Z,10160
2017-08-07T13:00:27.406Z,10268
2017-08-07T13:01:28.820Z,10808
2017-08-07T13:02:30.279Z,11980
2017-08-07T13:03:31.740Z,11484
2017-08-07T13:04:33.162Z,11704
2017-08-07T13:05:35.584Z,11588
2017-08-07T13:06:36.488Z,12248
2017-08-07T13:07:37.908Z,11752
2017-08-07T13:08:39.327Z,12248
2017-08-07T13:09:40.773Z,9444
2017-08-07T13:10:42.189Z,9136
2017-08-07T13:11:43.613Z,10996
2017-08-07T13:12:45.038Z,12168
2017-08-07T13:13:46.456Z,12276
2017-08-07T13:14:47.876Z,11496
2017-08-07T13:15:49.297Z,7220
2017-08-07T13:16:50.717Z,5944
2017-08-07T13:17:52.133Z,8096
2017-08-07T13:18:53.560Z,8792
2017-08-07T13:19:54.975Z,9048
2017-08-07T13:20:56.444Z,7372
2017-08-07T13:21:57.868Z,5412
2017-08-07T13:22:59.298Z,3676
2017-08-07T13:24:00.712Z,3352
2017-08-07T13:25:02.135Z,3172
2017-08-07T13:26:03.552Z,2972
2017-08-07T13:27:05.000Z,3080
2017-08-07T13:28:06.417Z,3028
2017-08-07T13:29:07.839Z,3000
2017-08-07T13:30:09.256Z,2988
2017-08-07T13:31:10.678Z,2932
2017-08-07T13:32:12.101Z,2856
2017-08-07T13:33:13.514Z,2716
2017-08-07T13:34:15.035Z,2180
2017-08-07T13:35:16.447Z,2356
2017-08-07T13:36:17.854Z,2296
2017-08-07T13:37:19.351Z,2288
2017-08-07T13:38:20.759Z,2280
2017-08-07T13:39:22.174Z,2248
2017-08-07T13:40:23.673Z,2256
2017-08-07T13:41:25.081Z,2288
2017-08-07T13:42:26.491Z,2412
2017-08-07T13:43:27.993Z,2256
2017-08-07T13:44:29.403Z,2128
2017-08-07T13:45:30.872Z,1960
2017-08-07T13:46:32.284Z,1944
2017-08-07T13:47:33.753Z,1948
2017-08-07T13:48:35.161Z,1920
2017-08-07T13:49:36.633Z,1848
2017-08-07T13:50:38.043Z,1912
2017-08-07T13:51:39.520Z,1968
2017-08-07T13:52:40.930Z,2052
2017-08-07T13:53:42.338Z,2156
2017-08-07T13:54:43.835Z,2336
2017-08-07T13:55:45.241Z,2400
2017-08-07T13:56:46.652Z,2292
2017-08-07T13:57:48.159Z,2160
2017-08-07T13:58:49.575Z,2236
2017-08-07T13:59:50.983Z,2396
2017-08-07T14:00:52.479Z,2276
2017-08-07T14:01:53.891Z,1940
2017-08-07T14:02:55.329Z,1892
2017-08-07T14:03:56.803Z,2056
2017-08-07T14:04:58.210Z,2068
2017-08-07T14:05:59.628Z,2020
2017-08-07T14:07:01.141Z,1888
2017-08-07T14:08:02.561Z,1900
2017-08-07T14:09:03.971Z,1896
2017-08-07T14:10:05.449Z,1936
2017-08-07T14:11:06.854Z,2016
2017-08-07T14:12:08.268Z,2116
2017-08-07T14:13:09.763Z,2144
2017-08-07T14:14:11.183Z,1840
2017-08-07T14:15:12.595Z,1660
2017-08-07T14:16:14.082Z,1700
2017-08-07T14:17:15.500Z,1772
2017-08-07T14:18:16.926Z,1620
2017-08-07T14:19:18.407Z,1452
2017-08-07T14:20:19.814Z,1400
2017-08-07T14:21:21.283Z,1404
2017-08-07T14:22:22.696Z,1448
2017-08-07T14:23:24.139Z,1280
2017-08-07T14:24:25.635Z,1196
2017-08-07T14:25:27.037Z,1180
2017-08-07T14:26:28.468Z,1172
2017-08-07T14:27:29.927Z,1144
2017-08-07T14:28:31.345Z,1140
2017-08-07T14:29:32.794Z,1136
2017-08-07T14:30:34.248Z,1140
2017-08-07T14:31:35.658Z,1140
2017-08-07T14:32:37.143Z,1140
2017-08-07T14:33:38.598Z,1232
2017-08-07T14:34:40.108Z,1372
2017-08-07T14:35:41.520Z,1440
2017-08-07T14:36:42.998Z,1488
2017-08-07T14:37:44.428Z,1560
2017-08-07T14:38:45.871Z,1556
2017-08-07T14:39:47.282Z,1532
2017-08-07T14:40:48.754Z,1576
2017-08-07T14:41:50.172Z,1560
2017-08-07T14:42:51.634Z,1568
2017-08-07T14:43:53.048Z,1644
2017-08-07T14:44:54.472Z,1736
2017-08-07T14:45:55.959Z,1732
2017-08-07T14:46:57.386Z,1700
2017-08-07T14:47:58.791Z,1692
2017-08-07T14:49:00.277Z,1744
2017-08-07T14:50:01.692Z,1748
2017-08-07T14:51:03.157Z,1732
2017-08-07T14:52:04.593Z,1612
2017-08-07T14:53:06.043Z,1460
2017-08-07T14:54:07.470Z,1312
2017-08-07T14:55:08.880Z,1252
2017-08-07T14:56:10.360Z,1196
2017-08-07T14:57:11.770Z,1128
2017-08-07T14:58:13.187Z,1040
2017-08-07T14:59:14.675Z,976
2017-08-07T15:00:16.082Z,912
2017-08-07T15:01:17.560Z,888
2017-08-07T15:02:19.006Z,868
2017-08-07T15:03:20.436Z,844
2017-08-07T15:04:21.849Z,832
2017-08-07T15:05:23.256Z,812
2017-08-07T15:06:24.757Z,796
2017-08-07T15:07:26.168Z,808
2017-08-07T15:08:27.613Z,820
2017-08-07T15:09:29.079Z,844
2017-08-07T15:10:30.497Z,868
2017-08-07T15:11:31.907Z,868
2017-08-07T15:12:33.399Z,872
2017-08-07T15:13:34.812Z,888
2017-08-07T15:14:36.217Z,920
2017-08-07T15:15:37.719Z,928
2017-08-07T15:16:39.131Z,912
2017-08-07T15:17:40.537Z,924
2017-08-07T15:18:42.042Z,876
2017-08-07T15:19:43.456Z,892
2017-08-07T15:20:44.920Z,896
2017-08-07T15:21:46.334Z,896
2017-08-07T15:22:47.802Z,896
2017-08-07T15:23:49.214Z,888
2017-08-07T15:24:50.622Z,848
2017-08-07T15:25:52.036Z,848
2017-08-07T15:26:53.450Z,836
2017-08-07T15:27:54.860Z,808
2017-08-07T15:28:56.296Z,784
2017-08-07T15:29:57.680Z,740
2017-08-07T15:30:59.090Z,724
2017-08-07T15:32:00.503Z,744
2017-08-07T15:33:01.911Z,756
2017-08-07T15:34:03.333Z,760
2017-08-07T15:35:04.754Z,756
2017-08-07T15:36:06.831Z,752
2017-08-07T15:37:08.053Z,764
2017-08-07T15:38:09.466Z,780
2017-08-07T15:39:10.878Z,800
2017-08-07T15:40:12.281Z,840
2017-08-07T15:41:13.709Z,884
2017-08-07T15:42:15.110Z,928
2017-08-07T15:43:16.524Z,908
2017-08-07T15:44:17.934Z,852
2017-08-07T15:45:19.342Z,812
2017-08-07T15:46:20.755Z,784
2017-08-07T15:47:22.209Z,760
2017-08-07T15:48:23.652Z,744
2017-08-07T15:49:25.152Z,736
2017-08-07T15:50:26.566Z,724
2017-08-07T15:51:27.972Z,724
2017-08-07T15:52:29.407Z,716
2017-08-07T15:53:30.909Z,704
2017-08-07T15:54:32.324Z,704
2017-08-07T15:55:33.787Z,696
2017-08-07T15:56:35.206Z,696
2017-08-07T15:57:36.622Z,696
2017-08-07T15:58:38.032Z,688
2017-08-07T15:59:39.463Z,680
2017-08-07T16:00:40.899Z,668
2017-08-07T16:01:42.314Z,656
2017-08-07T16:02:43.772Z,652
2017-08-07T16:03:45.178Z,636
2017-08-07T16:04:46.649Z,628
2017-08-07T16:05:48.055Z,636
2017-08-07T16:06:49.463Z,628
2017-08-07T16:07:51.021Z,640
2017-08-07T16:08:52.427Z,656
2017-08-07T16:09:53.840Z,668
2017-08-07T16:10:55.292Z,680
2017-08-07T16:11:56.712Z,680
2017-08-07T16:12:58.173Z,680
2017-08-07T16:13:59.586Z,680
2017-08-07T16:15:01.055Z,696
2017-08-07T16:16:02.461Z,720
2017-08-07T16:17:03.903Z,720
2017-08-07T16:18:05.323Z,720
2017-08-07T16:19:06.724Z,728
2017-08-07T16:20:08.132Z,724
2017-08-07T16:21:09.594Z,728
2017-08-07T16:22:11.001Z,744
2017-08-07T16:23:12.508Z,768
2017-08-07T16:24:13.919Z,776
2017-08-07T16:25:15.331Z,776
2017-08-07T16:26:16.808Z,784
2017-08-07T16:27:18.218Z,788
2017-08-07T16:28:19.625Z,800
2017-08-07T16:29:21.114Z,808
2017-08-07T16:30:22.523Z,816
2017-08-07T16:31:23.952Z,824
2017-08-07T16:32:25.438Z,828
2017-08-07T16:33:26.845Z,832
2017-08-07T16:34:28.337Z,856
2017-08-07T16:35:29.749Z,900
2017-08-07T16:36:31.150Z,956
2017-08-07T16:37:32.641Z,1028
2017-08-07T16:38:34.047Z,1112
2017-08-07T16:39:35.472Z,1212
2017-08-07T16:40:36.960Z,1292
2017-08-07T16:41:38.369Z,1260
2017-08-07T16:42:39.844Z,1252
2017-08-07T16:43:41.248Z,1220
2017-08-07T16:44:42.723Z,1168
2017-08-07T16:45:44.132Z,1136
2017-08-07T16:46:45.540Z,1116
2017-08-07T16:47:47.043Z,1120
2017-08-07T16:48:48.450Z,1152
2017-08-07T16:49:49.859Z,1196
2017-08-07T16:50:51.374Z,1228
2017-08-07T16:51:52.783Z,1248
2017-08-07T16:52:54.192Z,1280
2017-08-07T16:53:55.685Z,1272
2017-08-07T16:54:57.094Z,1256
2017-08-07T16:55:58.510Z,1244
2017-08-07T16:57:00.018Z,1232
2017-08-07T16:58:01.455Z,1244
2017-08-07T16:59:02.837Z,1268
2017-08-07T17:00:04.325Z,1288
2017-08-07T17:01:05.757Z,1296
2017-08-07T17:02:07.206Z,1292
2017-08-07T17:03:08.617Z,1284
2017-08-07T17:04:10.097Z,1284
2017-08-07T17:05:11.500Z,1280
2017-08-07T17:06:12.969Z,1292
2017-08-07T17:07:14.380Z,1312
2017-08-07T17:08:15.848Z,1296
2017-08-07T17:09:17.257Z,1260
2017-08-07T17:10:18.730Z,1236
2017-08-07T17:11:20.145Z,1204
2017-08-07T17:12:21.617Z,1180
2017-08-07T17:13:23.044Z,1168
2017-08-07T17:14:24.490Z,1144
2017-08-07T17:15:25.900Z,1104
2017-08-07T17:16:27.310Z,1060
2017-08-07T17:17:28.837Z,1028
2017-08-07T17:18:30.250Z,1000
2017-08-07T17:19:31.688Z,960
2017-08-07T17:20:33.132Z,904
2017-08-07T17:21:34.536Z,852
2017-08-07T17:22:36.026Z,824
2017-08-07T17:23:37.435Z,804
2017-08-07T17:24:38.894Z,816
2017-08-07T17:25:40.315Z,824
2017-08-07T17:26:41.729Z,820
2017-08-07T17:27:43.221Z,828
2017-08-07T17:28:44.666Z,828
2017-08-07T17:29:46.084Z,832
2017-08-07T17:30:47.538Z,816
2017-08-07T17:31:48.944Z,792
2017-08-07T17:32:50.349Z,784
2017-08-07T17:33:51.911Z,772
2017-08-07T17:34:53.292Z,764
2017-08-07T17:35:54.697Z,748
2017-08-07T17:36:56.179Z,728
2017-08-07T17:37:57.615Z,716
2017-08-07T17:38:59.062Z,712
2017-08-07T17:40:00.494Z,712
2017-08-07T17:41:01.898Z,712
2017-08-07T17:42:03.407Z,700
2017-08-07T17:43:04.816Z,692
2017-08-07T17:44:06.226Z,680
2017-08-07T17:45:07.702Z,688
2017-08-07T17:46:09.117Z,696
2017-08-07T17:47:10.544Z,700
2017-08-07T17:48:12.024Z,716
2017-08-07T17:49:13.463Z,724
2017-08-07T17:50:14.916Z,720
2017-08-07T17:51:16.325Z,724
2017-08-07T17:52:17.785Z,728
2017-08-07T17:53:19.206Z,712
2017-08-07T17:54:20.671Z,672
2017-08-07T17:55:22.114Z,628
2017-08-07T17:56:23.548Z,596
2017-08-07T17:57:25.017Z,588
2017-08-07T17:58:26.428Z,600
2017-08-07T17:59:27.834Z,604
2017-08-07T18:00:30.076Z,592
2017-08-07T18:01:31.493Z,568
2017-08-07T18:02:32.925Z,544
2017-08-07T18:03:34.446Z,524
2017-08-07T18:04:35.857Z,520
2017-08-07T18:05:37.276Z,520
2017-08-07T18:06:39.000Z,504
2017-08-07T18:07:40.407Z,492
2017-08-07T18:08:42.058Z,480
2017-08-07T18:09:43.473Z,468
2017-08-07T18:10:45.159Z,448
2017-08-07T18:11:46.565Z,424
2017-08-07T18:12:47.975Z,404
2017-08-07T18:13:53.157Z,380
2017-08-07T18:14:54.439Z,344
2017-08-07T18:15:55.846Z,316
2017-08-07T18:16:57.506Z,292
2017-08-07T18:17:58.918Z,280
2017-08-07T18:19:00.564Z,276
2017-08-07T18:20:02.920Z,276
2017-08-07T18:21:04.459Z,276
2017-08-07T18:22:05.864Z,280
2017-08-07T18:23:07.273Z,280
2017-08-07T18:24:09.044Z,272
2017-08-07T18:25:10.450Z,260
2017-08-07T18:26:11.875Z,252
2017-08-07T18:27:13.648Z,240
2017-08-07T18:28:15.070Z,232
2017-08-07T18:29:16.477Z,220
2017-08-07T18:30:18.957Z,212
2017-08-07T18:31:20.377Z,200
2017-08-07T18:32:21.784Z,196
2017-08-07T18:33:23.301Z,200
2017-08-07T18:34:24.707Z,208
2017-08-07T18:35:26.170Z,220
2017-08-07T18:36:27.563Z,224
2017-08-07T18:37:29.042Z,224
2017-08-07T18:38:30.456Z,228
2017-08-07T18:39:31.931Z,236
2017-08-07T18:40:33.339Z,228
2017-08-07T18:41:34.909Z,212
2017-08-07T18:42:36.311Z,192
2017-08-07T18:43:37.992Z,176
2017-08-07T18:44:39.423Z,168
2017-08-07T18:45:41.097Z,172
2017-08-07T18:46:42.506Z,160
2017-08-07T18:47:43.937Z,148
2017-08-07T18:48:45.605Z,136
2017-08-07T18:49:47.007Z,124
2017-08-07T18:50:48.417Z,116
2017-08-07T18:51:49.923Z,112
2017-08-07T18:52:51.346Z,108
2017-08-07T18:53:53.007Z,104
2017-08-07T18:54:54.424Z,100
2017-08-07T18:55:56.091Z,92
2017-08-07T18:56:57.497Z,80
2017-08-07T18:57:58.905Z,72
2017-08-07T18:59:00.416Z,64
2017-08-07T19:00:01.830Z,60
2017-08-07T19:01:03.237Z,56
2017-08-07T19:02:04.993Z,52
2017-08-07T19:03:06.427Z,44
2017-08-07T19:04:07.835Z,44
2017-08-07T19:05:09.308Z,40
2017-08-07T19:06:10.919Z,36
2017-08-07T19:07:12.357Z,32
2017-08-07T19:08:13.809Z,28
2017-08-07T19:09:15.449Z,28
2017-08-07T19:10:16.857Z,28
2017-08-07T19:11:18.252Z,24
2017-08-07T19:12:19.807Z,24
2017-08-07T19:13:21.222Z,16
2017-08-07T19:14:22.862Z,16
2017-08-07T19:15:24.300Z,16
2017-08-07T19:16:25.924Z,12
2017-08-07T19:17:27.329Z,12
2017-08-07T19:18:29.006Z,8
2017-08-07T19:19:30.408Z,12
2017-08-07T19:20:32.091Z,8
2017-08-07T19:21:33.493Z,8
2017-08-07T19:22:34.897Z,8
2017-08-07T19:23:36.411Z,4
2017-08-07T19:24:37.828Z,8
2017-08-07T19:25:48.381Z,4
2017-08-07T19:26:49.885Z,4
2017-08-07T19:27:51.288Z,0
2017-08-07T19:28:52.865Z,4
2017-08-07T19:29:54.267Z,4
2017-08-07T19:30:55.930Z,4
2017-08-07T19:31:57.336Z,0
2017-08-07T19:32:58.998Z,0
2017-08-07T19:34:00.403Z,0
2017-08-07T19:35:02.196Z,0
2017-08-07T19:36:03.627Z,0
2017-08-07T19:37:05.215Z,0
2017-08-07T19:38:06.656Z,0
2017-08-07T19:39:08.078Z,0
2017-08-07T19:40:09.699Z,0
2017-08-07T19:41:11.107Z,0
2017-08-07T19:42:12.574Z,0
2017-08-07T19:43:14.219Z,0
2017-08-07T19:44:15.634Z,0
2017-08-07T19:45:17.304Z,0
2017-08-07T19:46:18.739Z,0
2017-08-07T19:47:20.148Z,0
2017-08-07T19:48:21.839Z,0
2017-08-07T19:49:23.260Z,0
2017-08-07T19:50:24.662Z,0
2017-08-07T19:51:26.191Z,0
2017-08-07T19:52:27.596Z,0
2017-08-07T19:53:28.999Z,0
2017-08-07T19:54:30.680Z,0
2017-08-07T19:55:32.083Z,0
2017-08-07T19:56:33.767Z,0
2017-08-07T19:57:35.169Z,0
2017-08-07T19:58:36.852Z,0
2017-08-07T19:59:38.253Z,0
2017-08-07T20:00:40.756Z,0
2017-08-07T20:01:42.165Z,0
2017-08-07T20:02:43.566Z,0
2017-08-07T20:03:45.191Z,0
2017-08-07T20:04:46.588Z,0
2017-08-07T20:05:48.068Z,0
2017-08-07T20:06:49.604Z,0
2017-08-07T20:07:53.030Z,0
2017-08-07T20:08:54.437Z,0
2017-08-07T20:09:55.869Z,0
2017-08-07T20:10:57.295Z,0
2017-08-07T20:11:58.740Z,0
2017-08-07T20:13:00.171Z,0
2017-08-07T20:14:01.628Z,0
2017-08-07T20:15:03.038Z,0
2017-08-07T20:16:04.460Z,0
2017-08-07T20:17:05.912Z,0
2017-08-07T20:18:07.413Z,0
2017-08-07T20:19:08.815Z,0
2017-08-07T20:20:10.372Z,0
2017-08-07T20:21:11.785Z,0
2017-08-07T20:22:13.460Z,0
2017-08-07T20:23:14.874Z,0
2017-08-07T20:24:16.275Z,0
2017-08-07T20:25:17.790Z,0
2017-08-07T20:26:19.200Z,0
2017-08-07T20:27:20.602Z,0
2017-08-07T20:28:22.111Z,0
2017-08-07T20:29:23.539Z,0
2017-08-07T20:30:25.216Z,0
2017-08-07T20:31:26.629Z,0
2017-08-07T20:32:28.272Z,0
2017-08-07T20:33:29.672Z,0
2017-08-07T20:34:31.072Z,0
2017-08-07T20:35:32.614Z,0
2017-08-07T20:36:34.045Z,0
2017-08-07T20:37:35.468Z,0
2017-08-07T20:38:36.926Z,0
2017-08-07T20:39:38.338Z,0
2017-08-07T20:40:39.734Z,0
2017-08-07T20:41:41.240Z,0
2017-08-07T20:42:42.675Z,0
2017-08-07T20:43:44.048Z,0
2017-08-07T20:44:45.563Z,0
2017-08-07T20:45:46.969Z,0
2017-08-07T20:46:48.368Z,0
2017-08-07T20:47:49.877Z,0
2017-08-07T20:48:51.279Z,0
2017-08-07T20:49:52.682Z,0
2017-08-07T20:50:54.197Z,0
2017-08-07T20:51:55.623Z,0
2017-08-07T20:52:57.097Z,0
2017-08-07T20:53:58.516Z,0
2017-08-07T20:55:00.167Z,0
2017-08-07T20:56:01.574Z,0
2017-08-07T20:57:03.073Z,0
2017-08-07T20:58:04.598Z,0
2017-08-07T20:59:06.028Z,0
2017-08-07T21:00:07.472Z,0
2017-08-07T21:01:08.867Z,0
2017-08-07T21:02:10.272Z,0
2017-08-07T21:03:11.789Z,0
2017-08-07T21:04:13.262Z,0
2017-08-07T21:05:14.657Z,0
2017-08-07T21:06:16.123Z,0
2017-08-07T21:07:17.516Z,0
2017-08-07T21:08:18.936Z,0
2017-08-07T21:09:20.430Z,0
2017-08-07T21:10:21.841Z,0
2017-08-07T21:11:23.270Z,0
2017-08-07T21:12:24.854Z,0
2017-08-07T21:13:26.339Z,0
2017-08-07T21:14:27.738Z,0
2017-08-07T21:15:29.177Z,0
2017-08-07T21:16:30.579Z,0
2017-08-07T21:17:31.995Z,0
2017-08-07T21:18:33.515Z,0
2017-08-07T21:19:34.919Z,0
2017-08-07T21:20:36.385Z,0
2017-08-07T21:21:37.782Z,0
2017-08-07T21:22:39.257Z,0
2017-08-07T21:23:40.661Z,0
2017-08-07T21:24:42.138Z,0
2017-08-07T21:25:43.572Z,0
2017-08-07T21:26:45.018Z,0
2017-08-07T21:27:46.425Z,0
2017-08-07T21:28:47.897Z,0
2017-08-07T21:29:49.300Z,0
2017-08-07T21:30:50.793Z,0
2017-08-07T21:31:52.196Z,0
2017-08-07T21:32:53.681Z,0
2017-08-07T21:33:55.098Z,0
2017-08-07T21:34:56.543Z,0
2017-08-07T21:35:57.941Z,0
2017-08-07T21:36:59.423Z,0
2017-08-07T21:38:00.827Z,0
2017-08-07T21:39:02.305Z,0
2017-08-07T21:40:03.741Z,0
2017-08-07T21:41:05.234Z,0
2017-08-07T21:42:06.646Z,0
2017-08-07T21:43:08.069Z,0
2017-08-07T21:44:09.464Z,0
2017-08-07T21:45:10.946Z,0
2017-08-07T21:46:12.352Z,0
2017-08-07T21:47:13.855Z,0
2017-08-07T21:48:15.261Z,0
2017-08-07T21:49:16.707Z,0
2017-08-07T21:50:18.103Z,0
2017-08-07T21:51:19.511Z,0
2017-08-07T21:52:21.026Z,0
2017-08-07T21:53:22.430Z,0
2017-08-07T21:54:23.855Z,0
2017-08-07T21:55:25.455Z,0
2017-08-07T21:56:26.857Z,0
2017-08-07T21:57:28.252Z,0
2017-08-07T21:58:29.670Z,0
2017-08-07T21:59:31.079Z,0
2017-08-07T22:00:32.482Z,0
2017-08-07T22:01:34.002Z,0
2017-08-07T22:02:35.407Z,0
2017-08-07T22:03:36.805Z,0
2017-08-07T22:04:38.315Z,0
2017-08-07T22:05:39.716Z,0
2017-08-07T22:06:41.119Z,0
2017-08-07T22:07:42.632Z,0
2017-08-07T22:08:44.056Z,0
2017-08-07T22:09:45.470Z,0
2017-08-07T22:10:46.878Z,0
2017-08-07T22:11:48.278Z,0
2017-08-07T22:12:49.679Z,0
2017-08-07T22:13:51.172Z,0
2017-08-07T22:14:52.574Z,0
2017-08-07T22:15:54.021Z,0
2017-08-07T22:16:55.512Z,0
2017-08-07T22:17:56.902Z,0
2017-08-07T22:18:58.304Z,0
2017-08-07T22:19:59.812Z,0
2017-08-07T22:21:01.214Z,0
2017-08-07T22:22:02.696Z,0
2017-08-07T22:23:04.118Z,0
2017-08-07T22:24:05.576Z,0
2017-08-07T22:25:06.976Z,0
2017-08-07T22:26:08.379Z,0
2017-08-07T22:27:09.896Z,0
2017-08-07T22:28:11.298Z,0
2017-08-07T22:29:12.732Z,0
2017-08-07T22:30:14.224Z,0
2017-08-07T22:31:15.629Z,0
2017-08-07T22:32:17.047Z,0
2017-08-07T22:33:18.536Z,0
2017-08-07T22:34:19.940Z,0
2017-08-07T22:35:21.340Z,0
2017-08-07T22:36:22.858Z,0
2017-08-07T22:37:24.296Z,0
2017-08-07T22:38:25.687Z,0
2017-08-07T22:39:27.176Z,0
2017-08-07T22:40:28.583Z,0
2017-08-07T22:41:29.981Z,0
2017-08-07T22:42:31.505Z,0
2017-08-07T22:43:32.905Z,0
2017-08-07T22:44:34.328Z,0
2017-08-07T22:45:35.824Z,0
2017-08-07T22:46:37.231Z,0
2017-08-07T22:47:38.623Z,0
2017-08-07T22:48:40.146Z,0
2017-08-07T22:49:41.562Z,0
2017-08-07T22:50:42.965Z,0
2017-08-07T22:51:44.481Z,0
2017-08-07T22:52:45.885Z,0
2017-08-07T22:53:47.292Z,0
2017-08-07T22:54:48.789Z,0
2017-08-07T22:55:50.192Z,0
2017-08-07T22:56:51.598Z,0
2017-08-07T22:57:53.107Z,0
2017-08-07T22:58:54.529Z,0
2017-08-07T22:59:55.931Z,0
2017-08-07T23:00:57.428Z,0
2017-08-07T23:01:58.827Z,0
2017-08-07T23:03:00.306Z,0
2017-08-07T23:04:01.708Z,0
2017-08-07T23:05:03.194Z,0
2017-08-07T23:06:04.622Z,0
2017-08-07T23:07:06.077Z,0
2017-08-07T23:08:07.487Z,0
2017-08-07T23:09:08.948Z,0
2017-08-07T23:10:10.350Z,0
2017-08-07T23:11:11.829Z,0
2017-08-07T23:12:13.235Z,0
2017-08-07T23:13:14.741Z,0
2017-08-07T23:14:16.148Z,0
2017-08-07T23:15:17.595Z,0
2017-08-07T23:16:19.047Z,0
2017-08-07T23:17:20.448Z,0
2017-08-07T23:18:21.853Z,0
2017-08-07T23:19:23.352Z,0
2017-08-07T23:20:24.782Z,0
2017-08-07T23:21:26.186Z,0
2017-08-07T23:22:27.684Z,0
2017-08-07T23:23:29.094Z,0
2017-08-07T23:24:30.553Z,0
2017-08-07T23:25:31.956Z,0
2017-08-07T23:26:33.433Z,0
2017-08-07T23:27:34.859Z,0
2017-08-07T23:28:36.313Z,0
2017-08-07T23:29:37.718Z,0
2017-08-07T23:30:39.126Z,0
2017-08-07T23:31:40.528Z,0
2017-08-07T23:32:41.973Z,0
2017-08-07T23:33:43.376Z,0
2017-08-07T23:34:44.895Z,0
2017-08-07T23:35:46.258Z,0